Time;durP1;ratioP1;P1;durP2;ratioP2;P2;SDS_P1;SDS_P2;PMS_P1;PMS_P2;Temp;Humidity;BMP_temperature;BMP_pressure;BME280_temperature;BME280_humidity;BME280_pressure;Samples;Min_cycle;Max_cycle;Signal;HPM_P1;HPM_P2
2023/02/18 00:00:43;;;;;;;16.55;3.80;;;;;;;10.40;79.32;97072.44;5049782;28;20079;-72
2023/02/18 00:03:09;;;;;;;21.15;4.30;;;;;;;10.37;79.70;97079.28;5049008;28;20056;-72
2023/02/18 00:05:36;;;;;;;16.55;3.83;;;;;;;10.33;79.67;97074.72;5049347;28;20056;-72
2023/02/18 00:08:02;;;;;;;19.55;3.78;;;;;;;10.34;79.92;97073.66;5049250;28;20048;-72
2023/02/18 00:10:29;;;;;;;23.85;4.45;;;;;;;10.34;79.80;97077.19;5049505;28;20107;-72
2023/02/18 00:12:55;;;;;;;25.52;4.70;;;;;;;10.30;80.21;97073.44;5049244;28;20049;-72
2023/02/18 00:15:23;;;;;;;18.60;3.95;;;;;;;10.30;80.14;97059.81;5050525;28;20048;-72
2023/02/18 00:17:50;;;;;;;19.85;4.13;;;;;;;10.30;80.35;97062.53;5053320;28;20687;-73
2023/02/18 00:20:16;;;;;;;19.58;4.43;;;;;;;10.29;80.56;97068.28;5052944;28;20136;-72
2023/02/18 00:22:43;;;;;;;24.63;4.88;;;;;;;10.28;80.69;97072.09;5053536;28;20041;-72
2023/02/18 00:25:09;;;;;;;17.05;4.13;;;;;;;10.26;80.90;97066.16;5052914;28;20056;-72
2023/02/18 00:27:36;;;;;;;12.93;3.22;;;;;;;10.29;81.06;97068.28;5052791;28;20045;-72
2023/02/18 00:30:03;;;;;;;18.58;3.75;;;;;;;10.27;81.08;97067.75;5052962;28;20048;-73
2023/02/18 00:32:31;;;;;;;21.55;4.00;;;;;;;10.20;81.31;97063.50;5053040;28;20045;-72
2023/02/18 00:34:57;;;;;;;19.13;4.13;;;;;;;10.19;81.41;97064.59;5052567;28;20053;-72
2023/02/18 00:37:24;;;;;;;22.63;3.78;;;;;;;10.21;81.59;97064.28;5052920;28;20094;-72
2023/02/18 00:39:50;;;;;;;14.85;3.83;;;;;;;10.19;81.71;97061.06;5053175;28;20052;-72
2023/02/18 00:42:17;;;;;;;20.02;4.00;;;;;;;10.22;81.64;97065.09;5052878;28;20052;-72
2023/02/18 00:44:43;;;;;;;21.20;3.92;;;;;;;10.23;81.67;97061.25;5053464;28;20052;-72
2023/02/18 00:47:10;;;;;;;26.60;4.97;;;;;;;10.26;81.84;97060.72;5052943;28;20049;-72
2023/02/18 00:49:38;;;;;;;19.40;3.50;;;;;;;10.22;81.89;97071.34;5053388;28;20049;-72
2023/02/18 00:52:05;;;;;;;19.20;3.65;;;;;;;10.25;82.18;97064.53;5053047;28;20049;-73
2023/02/18 00:54:31;;;;;;;22.58;4.20;;;;;;;10.18;82.42;97071.16;5055857;28;20050;-72
2023/02/18 00:56:58;;;;;;;21.17;4.00;;;;;;;10.20;82.46;97068.94;5053303;28;20056;-72
2023/02/18 00:59:24;;;;;;;19.35;4.05;;;;;;;10.21;82.69;97069.72;5052490;28;20506;-72
2023/02/18 01:01:51;;;;;;;34.25;4.93;;;;;;;10.20;82.79;97068.13;5052743;28;20051;-72
2023/02/18 01:04:18;;;;;;;20.40;3.80;;;;;;;10.22;82.60;97070.53;5052316;28;20488;-72
2023/02/18 01:06:46;;;;;;;18.33;3.70;;;;;;;10.23;82.65;97061.25;5052555;28;20060;-72
2023/02/18 01:09:12;;;;;;;23.60;4.15;;;;;;;10.18;82.91;97054.81;5052397;28;20060;-72
2023/02/18 01:11:38;;;;;;;18.67;3.67;;;;;;;10.18;82.91;97060.25;5054757;28;20044;-71
2023/02/18 01:14:05;;;;;;;14.85;3.97;;;;;;;10.23;82.90;97055.81;5053684;28;20056;-71
2023/02/18 01:16:31;;;;;;;20.35;4.10;;;;;;;10.19;83.25;97056.44;5054475;28;20041;-72
2023/02/18 01:18:58;;;;;;;16.17;3.70;;;;;;;10.18;83.41;97051.28;5054646;28;20048;-72
2023/02/18 01:21:24;;;;;;;13.98;3.65;;;;;;;10.15;83.59;97052.69;5054310;28;20052;-71
2023/02/18 01:23:52;;;;;;;20.77;3.85;;;;;;;10.10;83.92;97047.31;5054908;28;20041;-72
2023/02/18 01:26:19;;;;;;;20.35;3.95;;;;;;;10.11;84.09;97043.50;5052911;28;20048;-72
2023/02/18 01:28:45;;;;;;;19.35;3.67;;;;;;;10.10;84.33;97046.53;5053243;28;20044;-71
2023/02/18 01:31:13;;;;;;;21.60;4.07;;;;;;;10.11;84.02;97035.31;5054618;28;20506;-72
2023/02/18 01:33:40;;;;;;;21.38;3.85;;;;;;;10.12;83.82;97050.53;5053710;28;20044;-72
2023/02/18 01:36:08;;;;;;;22.27;4.07;;;;;;;10.10;84.07;97047.31;5051699;28;20052;-73
2023/02/18 01:38:34;;;;;;;13.70;3.30;;;;;;;10.11;84.02;97043.50;5053271;28;20462;-71
2023/02/18 01:41:03;;;;;;;15.68;3.20;;;;;;;10.09;84.55;97045.72;5053903;28;20492;-71
2023/02/18 01:43:29;;;;;;;16.13;3.42;;;;;;;10.14;84.23;97042.09;5052524;28;20048;-72
2023/02/18 01:46:04;;;;;;;13.20;3.33;;;;;;;10.11;84.31;97043.50;5053803;28;20060;-72
2023/02/18 01:48:34;;;;;;;14.93;3.42;;;;;;;10.12;84.20;97027.97;5053400;28;20037;-72
2023/02/18 01:51:05;;;;;;;12.48;3.30;;;;;;;10.12;84.16;97030.69;5062526;28;20102;-72
2023/02/18 01:53:37;;;;;;;16.63;3.20;;;;;;;10.08;84.45;97033.22;5056682;28;20043;-72
2023/02/18 01:56:11;;;;;;;16.67;3.63;;;;;;;10.09;84.31;97023.94;5054027;28;20428;-73
2023/02/18 01:58:38;;;;;;;22.60;4.13;;;;;;;10.19;84.03;97033.84;5057485;28;20045;-72
2023/02/18 02:01:05;;;;;;;11.02;2.92;;;;;;;10.18;83.82;97032.25;5055910;28;20053;-72
2023/02/18 02:03:32;;;;;;;12.93;3.33;;;;;;;10.09;84.35;97034.81;5053684;28;20049;-72
2023/02/18 02:05:58;;;;;;;14.52;3.22;;;;;;;10.09;84.21;97023.94;5054198;28;20057;-72
2023/02/18 02:08:25;;;;;;;8.80;2.90;;;;;;;10.09;84.29;97013.06;5054320;28;20064;-72
2023/02/18 02:11:15;;;;;;;12.70;3.28;;;;;;;10.12;83.90;97006.19;5055419;28;20033;-71
2023/02/18 02:13:58;;;;;;;15.93;3.45;;;;;;;10.07;84.45;97012.53;5058288;28;20048;-72
2023/02/18 02:16:32;;;;;;;15.52;3.50;;;;;;;10.11;84.00;97005.41;5058442;28;20045;-71
2023/02/18 02:19:09;;;;;;;23.83;4.50;;;;;;;10.13;84.07;96999.69;5057897;28;20055;-71
2023/02/18 02:22:17;;;;;;;17.08;3.60;;;;;;;10.14;83.95;96991.19;5059444;28;20033;-74
2023/02/18 02:25:19;;;;;;;16.02;3.45;;;;;;;10.14;83.66;96988.47;5059524;28;20506;-73
2023/02/18 02:28:23;;;;;;;13.05;3.22;;;;;;;10.14;83.69;96993.94;5012857;28;20092;-73
2023/02/18 02:31:07;;;;;;;15.48;3.15;;;;;;;10.16;84.05;96996.34;5047873;28;20538;-73
2023/02/18 02:34:24;;;;;;;21.58;3.58;;;;;;;10.09;84.13;96991.28;5050597;28;20419;-73
2023/02/18 02:36:56;;;;;;;20.35;3.45;;;;;;;10.11;83.61;96999.94;5050897;28;20488;-73
2023/02/18 02:39:31;;;;;;;20.33;3.42;;;;;;;10.13;83.68;96995.03;5050115;28;20049;-73
2023/02/18 02:42:06;;;;;;;21.35;3.45;;;;;;;10.14;83.39;96998.56;5050706;28;20052;-73
2023/02/18 02:44:44;;;;;;;11.07;2.50;;;;;;;10.12;83.41;96979.78;5050269;28;20048;-73
2023/02/18 02:47:18;;;;;;;22.50;3.47;;;;;;;10.15;82.97;96984.66;5049499;28;20045;-73
2023/02/18 02:49:52;;;;;;;20.63;3.75;;;;;;;10.15;82.34;96984.66;5050146;28;20041;-73
2023/02/18 02:52:23;;;;;;;27.55;4.80;;;;;;;10.11;82.71;96977.38;5049659;28;20562;-73
2023/02/18 02:54:51;;;;;;;21.40;3.53;;;;;;;10.14;82.83;96980.31;5050294;28;20049;-73
2023/02/18 02:57:49;;;;;;;19.77;3.88;;;;;;;10.12;82.63;96968.09;5050113;28;20041;-73
2023/02/18 03:00:19;;;;;;;16.23;3.55;;;;;;;10.11;82.72;96967.28;5049496;28;20045;-73
2023/02/18 03:03:02;;;;;;;40.50;5.32;;;;;;;10.09;83.08;96964.06;5050146;28;20041;-73
2023/02/18 03:05:38;;;;;;;;;;;;;;;10.08;82.81;96967.91;5050447;28;20064;-73
2023/02/18 03:08:25;;;;;;;23.45;3.92;;;;;;;10.09;83.17;96969.53;5050009;28;19921;-73
2023/02/18 03:10:58;;;;;;;16.95;3.58;;;;;;;10.08;83.06;96972.56;5050286;28;20048;-73
2023/02/18 03:13:35;;;;;;;19.58;3.75;;;;;;;10.06;83.24;96966.59;5029772;28;20049;-73
2023/02/18 03:16:13;;;;;;;18.75;3.30;;;;;;;10.08;83.08;96965.19;5042200;28;20403;-75
2023/02/18 03:18:43;;;;;;;22.13;3.85;;;;;;;10.06;83.04;96961.13;5050361;28;20041;-72
2023/02/18 03:21:15;;;;;;;22.25;4.13;;;;;;;10.08;83.05;96953.50;5049593;28;20048;-74
2023/02/18 03:23:46;;;;;;;23.90;3.95;;;;;;;10.11;83.12;96961.84;5049720;28;20044;-73
2023/02/18 03:26:18;;;;;;;19.48;3.42;;;;;;;10.08;82.89;96951.59;5049732;28;20041;-73
2023/02/18 03:28:46;;;;;;;18.55;3.35;;;;;;;10.03;83.57;96954.41;5049979;28;20045;-73
2023/02/18 03:31:19;;;;;;;23.45;3.85;;;;;;;10.00;83.55;96946.00;5050108;28;20049;-72
2023/02/18 03:33:51;;;;;;;19.33;3.22;;;;;;;10.01;83.69;96955.78;5050573;28;20512;-73
2023/02/18 03:36:19;;;;;;;23.05;3.85;;;;;;;9.94;84.15;96945.31;5049552;28;20119;-73
2023/02/18 03:38:53;;;;;;;10.60;2.45;;;;;;;9.90;84.50;96947.81;5049909;28;20041;-73
2023/02/18 03:41:20;;;;;;;14.23;2.85;;;;;;;9.89;84.63;96959.00;5049432;28;20056;-73
2023/02/18 03:43:50;;;;;;;24.10;3.60;;;;;;;9.89;84.96;96953.56;5049302;28;20090;-73
2023/02/18 03:46:17;;;;;;;21.02;3.42;;;;;;;9.83;85.09;96965.63;5049167;28;20124;-73
2023/02/18 03:48:44;;;;;;;21.52;3.33;;;;;;;9.83;85.20;96960.19;5049652;28;20040;-73
2023/02/18 03:51:11;;;;;;;23.75;3.20;;;;;;;9.89;84.83;96959.78;5048906;28;20052;-73
2023/02/18 03:53:38;;;;;;;23.02;3.22;;;;;;;9.93;84.60;96955.38;5049507;28;20045;-73
2023/02/18 03:56:06;;;;;;;22.35;3.38;;;;;;;9.95;84.83;96957.78;5048932;28;20048;-74
2023/02/18 03:58:32;;;;;;;23.77;3.38;;;;;;;9.96;84.54;96958.59;5049669;28;20037;-73
2023/02/18 04:00:59;;;;;;;18.05;3.33;;;;;;;9.94;84.60;96956.19;5049299;28;20083;-73
2023/02/18 04:03:25;;;;;;;11.18;2.38;;;;;;;9.91;84.77;96959.50;5048614;28;20056;-73
2023/02/18 04:05:52;;;;;;;21.55;3.40;;;;;;;9.90;85.03;96966.03;5049593;28;20643;-73
2023/02/18 04:08:18;;;;;;;23.27;3.35;;;;;;;9.94;84.50;96956.19;5049081;28;20114;-74
2023/02/18 04:10:46;;;;;;;13.93;2.90;;;;;;;10.00;84.22;96959.63;5049351;28;20045;-73
2023/02/18 04:13:13;;;;;;;30.77;3.85;;;;;;;9.96;84.72;96953.97;5048927;28;20045;-73
2023/02/18 04:15:39;;;;;;;19.65;3.40;;;;;;;9.97;84.28;96955.59;5049820;28;20048;-73
2023/02/18 04:18:06;;;;;;;19.15;3.25;;;;;;;9.98;84.12;96957.22;5048786;28;20052;-73
2023/02/18 04:20:32;;;;;;;19.45;3.47;;;;;;;9.96;84.38;96964.03;5049900;28;20045;-73
2023/02/18 04:22:59;;;;;;;30.77;4.25;;;;;;;9.98;83.80;96965.38;5049530;28;20049;-73
2023/02/18 04:25:25;;;;;;;15.68;2.85;;;;;;;9.97;83.66;96966.47;5048782;28;20041;-73
2023/02/18 04:27:53;;;;;;;21.30;3.33;;;;;;;9.89;84.39;96969.88;5049686;28;20045;-73
2023/02/18 04:30:20;;;;;;;16.80;2.90;;;;;;;9.89;84.28;96967.97;5049003;28;20056;-73
2023/02/18 04:32:46;;;;;;;31.98;4.10;;;;;;;9.91;84.42;96968.47;5049217;28;20045;-73
2023/02/18 04:35:13;;;;;;;20.90;3.50;;;;;;;9.85;85.09;96971.56;5049093;28;20492;-73
2023/02/18 04:37:39;;;;;;;24.38;3.63;;;;;;;9.85;85.17;96974.28;5049807;28;20049;-73
2023/02/18 04:40:07;;;;;;;17.27;2.78;;;;;;;9.85;85.55;96979.72;5050605;28;20045;-75
2023/02/18 04:42:34;;;;;;;24.05;3.55;;;;;;;9.88;85.65;96965.53;5049435;28;20045;-73
2023/02/18 04:45:02;;;;;;;16.63;2.75;;;;;;;9.84;85.91;96978.94;5049423;28;20073;-73
2023/02/18 04:47:28;;;;;;;23.40;3.25;;;;;;;9.85;86.19;96979.72;5049113;28;20484;-73
2023/02/18 04:49:55;;;;;;;26.08;3.50;;;;;;;9.78;86.72;96976.59;5049045;28;20064;-72
2023/02/18 04:52:21;;;;;;;18.63;2.88;;;;;;;9.81;86.46;96978.69;5048576;28;20052;-73
2023/02/18 04:54:48;;;;;;;26.90;3.53;;;;;;;9.80;86.56;96982.53;5048689;28;20102;-73
2023/02/18 04:57:14;;;;;;;22.48;3.35;;;;;;;9.79;86.54;96986.38;5048605;28;20041;-73
2023/02/18 04:59:41;;;;;;;15.02;2.58;;;;;;;9.75;86.80;96991.59;5049063;28;20045;-73
2023/02/18 05:02:09;;;;;;;19.75;3.10;;;;;;;9.71;87.21;96989.75;5050653;28;20049;-73
2023/02/18 05:04:35;;;;;;;26.77;3.47;;;;;;;9.72;86.61;96984.03;5054100;28;20386;-73
2023/02/18 05:07:02;;;;;;;12.20;2.58;;;;;;;9.70;87.05;96979.97;5052908;28;20505;-74
2023/02/18 05:09:28;;;;;;;14.73;2.95;;;;;;;9.70;86.83;96977.25;5053159;28;20041;-73
2023/02/18 05:11:55;;;;;;;15.68;3.03;;;;;;;9.67;87.05;96979.47;5053424;28;20053;-73
2023/02/18 05:14:21;;;;;;;17.95;3.08;;;;;;;9.68;87.03;96986.53;5052441;28;20057;-73
2023/02/18 05:16:48;;;;;;;15.35;2.90;;;;;;;9.66;86.89;96980.59;5052519;28;20483;-73
2023/02/18 05:19:16;;;;;;;15.68;2.65;;;;;;;9.70;86.75;96988.13;5051569;28;20052;-73
2023/02/18 05:21:43;;;;;;;15.73;2.85;;;;;;;9.67;87.12;96979.47;5052297;28;20057;-73
2023/02/18 05:24:10;;;;;;;20.35;3.42;;;;;;;9.66;87.04;96968.91;5051888;28;20503;-73
2023/02/18 05:26:36;;;;;;;17.98;2.88;;;;;;;9.63;87.24;96953.16;5052401;28;20045;-73
2023/02/18 05:29:03;;;;;;;13.48;2.58;;;;;;;9.64;87.27;96961.03;5051900;28;20044;-74
2023/02/18 05:31:30;;;;;;;9.38;2.10;;;;;;;9.59;87.56;96955.66;5051582;28;20673;-73
2023/02/18 05:33:57;;;;;;;19.75;3.20;;;;;;;9.59;87.35;96957.59;5051690;28;20053;-73
2023/02/18 05:36:25;;;;;;;10.43;2.10;;;;;;;9.62;86.85;96957.81;5051304;28;20448;-72
2023/02/18 05:38:51;;;;;;;19.77;2.95;;;;;;;9.61;87.27;96967.06;5052090;28;20049;-73
2023/02/18 05:41:18;;;;;;;22.55;3.33;;;;;;;9.60;87.00;96967.34;5051155;28;20504;-73
2023/02/18 05:46:28;;;;;;;16.27;2.13;;;;;;;9.58;87.01;96959.50;5051369;28;20514;-73
2023/02/18 05:48:54;;;;;;;16.90;2.80;;;;;;;9.56;87.04;96956.28;5051928;28;20096;-73
2023/02/18 05:51:21;;;;;;;14.07;2.95;;;;;;;9.53;87.46;96965.03;5051143;28;20045;-73
2023/02/18 05:53:48;;;;;;;10.73;2.70;;;;;;;9.53;87.29;96967.72;5051251;28;20048;-72
2023/02/18 05:56:15;;;;;;;10.88;2.42;;;;;;;9.53;87.28;96961.50;5051073;28;20041;-73
2023/02/18 05:58:41;;;;;;;12.70;2.50;;;;;;;9.47;87.48;96963.47;5051681;28;20052;-73
2023/02/18 06:01:08;;;;;;;11.05;2.40;;;;;;;9.47;87.54;96954.53;5050438;28;20055;-73
2023/02/18 06:03:34;;;;;;;11.45;2.58;;;;;;;9.44;87.89;96946.94;5051043;28;20045;-73
2023/02/18 06:06:01;;;;;;;10.57;2.42;;;;;;;9.39;88.16;96950.56;5051063;28;20045;-72
2023/02/18 06:08:28;;;;;;;8.00;2.45;;;;;;;9.36;88.42;96959.31;5050951;28;20041;-73
2023/02/18 06:10:56;;;;;;;12.10;2.90;;;;;;;9.37;88.31;96958.19;5051335;28;20515;-73
2023/02/18 06:13:22;;;;;;;9.57;2.75;;;;;;;9.33;88.48;96951.75;5049882;28;20060;-73
2023/02/18 06:15:50;;;;;;;10.75;2.70;;;;;;;9.32;88.42;96944.69;5051356;28;20045;-73
2023/02/18 06:18:17;;;;;;;13.90;3.03;;;;;;;9.35;88.31;96957.69;5050335;28;20037;-73
2023/02/18 06:20:43;;;;;;;10.27;2.20;;;;;;;9.37;87.80;96959.00;5051199;28;20052;-73
2023/02/18 06:23:10;;;;;;;10.93;2.33;;;;;;;9.39;87.89;96953.28;5050703;28;20389;-73
2023/02/18 06:25:36;;;;;;;13.02;2.75;;;;;;;9.42;87.59;96955.41;5051088;28;20036;-73
2023/02/18 06:28:04;;;;;;;10.27;2.40;;;;;;;9.40;87.87;96965.78;5050363;28;20061;-74
2023/02/18 06:30:31;;;;;;;11.10;2.35;;;;;;;9.42;87.63;96963.56;5050731;28;20123;-73
2023/02/18 06:32:58;;;;;;;27.13;4.10;;;;;;;9.43;87.76;96956.22;5050474;28;20053;-73
2023/02/18 06:35:24;;;;;;;9.82;2.08;;;;;;;9.43;87.30;96959.75;5050450;28;20099;-73
2023/02/18 06:37:50;;;;;;;11.40;2.38;;;;;;;9.47;86.94;96958.06;5051046;28;20048;-73
2023/02/18 06:40:18;;;;;;;13.23;2.58;;;;;;;9.51;86.53;96953.66;5050075;28;20049;-73
2023/02/18 06:42:44;;;;;;;20.42;2.97;;;;;;;9.50;86.67;96962.91;5050307;28;20108;-73
2023/02/18 06:45:12;;;;;;;17.55;2.58;;;;;;;9.53;85.98;96967.72;5050036;28;20051;-73
2023/02/18 06:47:39;;;;;;;22.77;2.90;;;;;;;9.55;86.22;96968.25;5050455;28;20415;-73
2023/02/18 06:50:07;;;;;;;16.17;2.25;;;;;;;9.56;85.82;96977.22;5050324;28;20461;-73
2023/02/18 06:52:33;;;;;;;16.70;2.50;;;;;;;9.57;85.77;96974.19;5050691;28;20048;-73
2023/02/18 06:55:00;;;;;;;11.18;2.58;;;;;;;9.59;85.35;96976.63;5050222;28;20045;-73
2023/02/18 06:57:26;;;;;;;6.25;1.80;;;;;;;9.62;85.25;96965.97;5050239;28;20045;-72
2023/02/18 06:59:52;;;;;;;7.50;2.10;;;;;;;9.63;85.42;96975.72;5050215;28;20533;-73
2023/02/18 07:02:20;;;;;;;6.82;2.08;;;;;;;9.62;85.12;96974.13;5049768;28;20037;-73
2023/02/18 07:04:47;;;;;;;4.40;1.27;;;;;;;9.64;84.94;96979.25;5049428;28;20130;-73
2023/02/18 07:07:13;;;;;;;6.38;2.10;;;;;;;9.66;84.69;96972.44;5049800;28;20130;-73
2023/02/18 07:09:40;;;;;;;7.95;2.25;;;;;;;9.68;84.74;96969.41;5050138;28;20041;-73
2023/02/18 07:12:07;;;;;;;8.30;2.20;;;;;;;9.74;83.82;96978.28;5050095;28;20045;-73
2023/02/18 07:14:33;;;;;;;4.88;1.73;;;;;;;9.82;82.93;96969.47;5049636;28;20045;-73
2023/02/18 07:17:00;;;;;;;8.90;2.25;;;;;;;9.84;82.63;96967.25;5050060;28;20118;-73
2023/02/18 07:19:27;;;;;;;9.07;2.05;;;;;;;9.85;82.15;96980.53;5049541;28;20056;-73
2023/02/18 07:21:56;;;;;;;10.93;2.35;;;;;;;9.91;81.33;96983.97;5050086;28;20059;-73
2023/02/18 07:24:23;;;;;;;9.48;2.22;;;;;;;9.97;81.57;96988.25;5048637;28;20053;-73
2023/02/18 07:26:49;;;;;;;6.63;1.70;;;;;;;9.97;81.86;96977.38;5050266;28;20044;-73
2023/02/18 07:29:16;;;;;;;6.45;1.98;;;;;;;10.01;81.61;96972.91;5049502;28;20052;-74
2023/02/18 07:31:42;;;;;;;6.40;1.98;;;;;;;10.06;81.51;96972.81;5049989;28;20041;-72
2023/02/18 07:34:09;;;;;;;8.15;2.20;;;;;;;10.07;80.89;96977.16;5049131;28;20400;-73
2023/02/18 07:36:37;;;;;;;3.47;1.38;;;;;;;10.12;80.80;96979.78;5049497;28;20052;-73
2023/02/18 07:39:04;;;;;;;4.28;1.55;;;;;;;10.15;80.72;96976.47;5049203;28;20582;-73
2023/02/18 07:41:30;;;;;;;4.35;1.60;;;;;;;10.23;80.59;96982.31;5049551;28;20052;-73
2023/02/18 07:43:57;;;;;;;5.68;1.77;;;;;;;10.27;80.29;96980.66;5049733;28;20048;-73
2023/02/18 07:46:23;;;;;;;3.97;1.60;;;;;;;10.32;79.57;96972.41;5049370;28;20451;-73
2023/02/18 07:48:49;;;;;;;3.80;1.70;;;;;;;10.34;79.48;96986.53;5049584;28;20052;-73
2023/02/18 07:51:16;;;;;;;4.10;1.80;;;;;;;10.38;78.84;96976.63;5048931;28;20049;-73
2023/02/18 07:53:44;;;;;;;4.68;1.70;;;;;;;10.42;78.77;96983.09;5049702;28;20522;-74
2023/02/18 07:56:11;;;;;;;5.55;2.08;;;;;;;10.56;78.11;96986.66;5048421;28;20060;-74
2023/02/18 07:58:38;;;;;;;4.00;1.85;;;;;;;10.69;77.97;96983.09;5046187;28;20150;-73
2023/02/18 08:01:06;;;;;;;4.07;2.25;;;;;;;10.78;77.33;96974.22;5045179;28;20053;-72
2023/02/18 08:03:34;;;;;;;4.05;1.98;;;;;;;10.90;76.53;96971.78;5045496;28;20052;-73
2023/02/18 08:06:01;;;;;;;3.28;1.92;;;;;;;10.95;77.13;96974.41;5046067;28;20136;-73
2023/02/18 08:08:30;;;;;;;5.38;1.65;;;;;;;10.94;76.84;96965.44;5045230;28;20041;-73
2023/02/18 08:11:02;;;;;;;5.43;2.28;;;;;;;10.92;76.98;96969.59;5045530;28;20049;-74
2023/02/18 08:13:29;;;;;;;4.75;2.03;;;;;;;10.94;76.48;96973.59;5045097;28;20079;-73
2023/02/18 08:15:57;;;;;;;6.00;2.30;;;;;;;11.05;75.29;96978.84;5047249;28;20052;-73
2023/02/18 08:18:25;;;;;;;2.53;1.50;;;;;;;11.13;75.46;96969.94;5046434;28;20060;-73
2023/02/18 08:20:52;;;;;;;2.28;1.25;;;;;;;11.15;75.41;96973.97;5046488;28;20099;-73
2023/02/18 08:23:20;;;;;;;2.50;1.60;;;;;;;11.22;74.42;96958.00;5045953;28;20049;-74
2023/02/18 08:25:47;;;;;;;2.85;1.60;;;;;;;11.46;74.39;96968.63;5047066;28;20491;-73
2023/02/18 08:28:14;;;;;;;3.80;1.45;;;;;;;11.50;74.16;96957.91;5046703;28;20064;-73
2023/02/18 08:30:44;;;;;;;5.28;2.22;;;;;;;11.75;72.45;96951.03;5049345;28;20045;-74
2023/02/18 08:33:11;;;;;;;3.83;1.42;;;;;;;12.34;69.70;96945.47;5046147;28;20045;-74
2023/02/18 08:35:37;;;;;;;2.58;1.45;;;;;;;12.40;69.63;96957.84;5048071;28;20041;-74
2023/02/18 08:38:04;;;;;;;3.90;2.10;;;;;;;12.52;68.22;96961.59;5050260;28;20052;-73
2023/02/18 08:40:30;;;;;;;10.27;5.13;;;;;;;13.07;65.32;96938.44;5049955;28;20053;-74
2023/02/18 08:42:57;;;;;;;4.72;2.40;;;;;;;12.89;66.70;96931.31;5050203;28;20385;-73
2023/02/18 08:45:24;;;;;;;4.00;2.22;;;;;;;13.03;66.29;96926.53;5049639;28;20045;-73
2023/02/18 08:47:51;;;;;;;4.47;1.45;;;;;;;13.52;64.36;96932.69;5049745;28;20111;-74
2023/02/18 08:50:19;;;;;;;3.42;2.00;;;;;;;13.84;62.43;96929.44;5049169;28;20045;-74
2023/02/18 08:52:46;;;;;;;3.55;2.25;;;;;;;12.94;64.73;96929.22;5049877;28;20797;-74
2023/02/18 08:55:13;;;;;;;1.85;1.15;;;;;;;12.97;65.71;96920.41;5049552;28;20053;-74
2023/02/18 08:57:39;;;;;;;2.20;1.40;;;;;;;12.52;66.83;96934.25;5049245;28;20135;-73
2023/02/18 09:00:07;;;;;;;5.18;2.47;;;;;;;12.36;67.02;96935.00;5048645;28;20102;-74
2023/02/18 09:02:35;;;;;;;2.80;1.58;;;;;;;12.06;68.67;96934.72;5049408;28;20059;-73
2023/02/18 09:05:02;;;;;;;2.15;1.20;;;;;;;12.00;69.77;96928.56;5048704;28;20567;-74
2023/02/18 09:07:29;;;;;;;2.42;1.10;;;;;;;12.25;68.57;96939.94;5048808;28;20052;-73
2023/02/18 09:09:55;;;;;;;1.60;1.10;;;;;;;12.13;69.16;96931.53;5049039;28;20045;-73
2023/02/18 09:12:22;;;;;;;2.78;1.40;;;;;;;11.99;68.89;96923.44;5048671;28;20056;-73
2023/02/18 09:14:48;;;;;;;2.42;1.55;;;;;;;12.07;69.10;96930.06;5049236;28;20427;-73
2023/02/18 09:17:15;;;;;;;2.25;1.30;;;;;;;11.85;70.39;96936.34;5048548;28;20074;-73
2023/02/18 09:19:43;;;;;;;3.75;1.30;;;;;;;11.81;70.75;96924.44;5049596;28;20056;-73
2023/02/18 09:22:09;;;;;;;3.10;1.90;;;;;;;11.68;70.34;96910.53;5048303;28;20056;-74
2023/02/18 09:24:37;;;;;;;5.65;1.60;;;;;;;11.74;70.34;96925.69;5048935;28;20114;-73
2023/02/18 09:27:04;;;;;;;2.53;1.33;;;;;;;11.81;69.91;96908.06;5047293;28;20137;-73
2023/02/18 09:29:32;;;;;;;5.32;1.88;;;;;;;11.64;70.26;96914.19;5030156;28;20052;-73
2023/02/18 09:32:00;;;;;;;4.95;2.20;;;;;;;11.67;70.91;96919.84;5048874;28;21135;-73
2023/02/18 09:34:26;;;;;;;3.42;1.60;;;;;;;11.61;70.47;96912.91;5047747;28;20056;-73
2023/02/18 09:36:54;;;;;;;4.00;1.85;;;;;;;11.62;69.48;96911.78;5048223;28;20067;-73
2023/02/18 09:39:21;;;;;;;3.13;1.77;;;;;;;11.77;69.56;96897.75;5048286;28;20079;-74
2023/02/18 09:41:50;;;;;;;6.22;1.63;;;;;;;11.87;69.46;96906.84;5048708;28;20045;-73
2023/02/18 09:44:21;;;;;;;4.40;2.22;;;;;;;11.96;69.09;96904.97;5047928;28;20048;-73
2023/02/18 09:46:51;;;;;;;3.30;1.98;;;;;;;11.96;68.67;96891.31;5048341;28;20045;-74
2023/02/18 09:49:22;;;;;;;2.95;1.90;;;;;;;12.14;69.01;96901.19;5047898;28;20048;-73
2023/02/18 09:51:49;;;;;;;5.85;2.40;;;;;;;12.05;68.23;96897.59;5048570;28;20044;-73
2023/02/18 09:54:19;;;;;;;4.15;1.55;;;;;;;12.01;67.87;96886.53;5048004;28;20056;-73
2023/02/18 09:56:48;;;;;;;8.38;2.90;;;;;;;11.94;67.95;96901.72;5048033;28;20065;-74
2023/02/18 09:59:18;;;;;;;5.47;2.58;;;;;;;12.16;67.64;96888.06;5047353;28;20053;-74
2023/02/18 10:01:47;;;;;;;4.70;2.22;;;;;;;12.00;67.89;96881.38;5048384;28;20052;-74
2023/02/18 10:04:20;;;;;;;5.10;2.40;;;;;;;11.91;68.39;96880.53;5046731;28;20382;-73
2023/02/18 10:06:48;;;;;;;4.85;2.05;;;;;;;11.99;67.96;96883.28;5047824;28;20040;-73
2023/02/18 10:09:20;;;;;;;4.05;2.33;;;;;;;12.42;65.72;96879.13;5047314;28;20060;-74
2023/02/18 10:11:51;;;;;;;3.13;1.80;;;;;;;12.89;66.32;96871.19;5048322;28;20124;-73
2023/02/18 10:14:18;;;;;;;5.90;1.95;;;;;;;12.72;65.39;96883.69;5047771;28;20078;-74
2023/02/18 10:16:47;;;;;;;4.65;1.92;;;;;;;12.69;64.59;96884.34;5047828;28;20555;-74
2023/02/18 10:19:21;;;;;;;6.03;2.20;;;;;;;12.91;64.75;96880.69;5047314;28;20048;-73
2023/02/18 10:21:49;;;;;;;5.35;1.95;;;;;;;13.01;64.88;96879.56;5047731;28;20045;-73
2023/02/18 10:24:29;;;;;;;5.53;2.45;;;;;;;13.20;64.44;96849.97;5047321;28;20049;-74
2023/02/18 10:26:56;;;;;;;3.60;1.90;;;;;;;12.77;65.11;96853.50;5047872;28;20131;-73
2023/02/18 10:29:24;;;;;;;5.50;2.22;;;;;;;12.97;64.74;96856.72;5047215;28;20049;-73
2023/02/18 10:31:55;;;;;;;8.07;2.42;;;;;;;12.80;63.77;96847.41;5047789;28;20060;-73
2023/02/18 10:34:30;;;;;;;6.07;2.45;;;;;;;12.68;64.60;96841.72;5046481;28;20053;-74
2023/02/18 10:37:03;;;;;;;6.18;2.25;;;;;;;12.74;65.03;96842.41;5047529;28;20049;-73
2023/02/18 10:39:42;;;;;;;4.72;2.00;;;;;;;12.98;64.78;96825.53;5047519;28;20514;-73
2023/02/18 10:42:20;;;;;;;3.47;1.88;;;;;;;13.15;63.33;96836.44;5047081;28;20052;-73
2023/02/18 10:44:57;;;;;;;3.25;1.90;;;;;;;13.33;61.80;96809.94;5046998;28;20135;-74
2023/02/18 10:47:35;;;;;;;5.13;2.30;;;;;;;13.18;62.91;96803.00;5046795;28;20049;-74
2023/02/18 10:50:08;;;;;;;7.60;2.80;;;;;;;12.67;64.04;96799.16;5047384;28;20115;-74
2023/02/18 10:52:41;;;;;;;5.78;2.30;;;;;;;13.05;62.81;96793.88;5047246;28;20516;-74
2023/02/18 10:55:14;;;;;;;5.60;2.33;;;;;;;13.09;63.21;96783.06;5046863;28;20139;-74
2023/02/18 10:57:49;;;;;;;3.28;1.92;;;;;;;13.14;63.30;96782.91;5047105;28;20140;-74
2023/02/18 11:00:19;;;;;;;3.53;1.90;;;;;;;13.14;63.79;96774.69;5046136;28;20055;-74
2023/02/18 11:02:46;;;;;;;4.22;2.05;;;;;;;12.91;63.49;96792.41;5047137;28;20088;-73
2023/02/18 11:05:23;;;;;;;6.30;2.88;;;;;;;12.77;63.68;96779.69;5046431;28;20052;-73
2023/02/18 11:07:52;;;;;;;4.47;2.33;;;;;;;12.90;64.54;96779.88;5046965;28;20095;-73
2023/02/18 11:10:25;;;;;;;3.70;2.10;;;;;;;13.05;64.25;96782.13;5046092;28;20543;-74
2023/02/18 11:12:56;;;;;;;;;;;;;;;12.96;63.52;96795.00;5049241;28;20052;-74
2023/02/18 11:15:25;;;;;;;2.50;1.70;;;;;;;13.00;64.11;96787.75;5045555;28;19946;-74
2023/02/18 11:17:53;;;;;;;4.15;2.38;;;;;;;12.95;63.55;96793.38;5046316;28;20060;-73
2023/02/18 11:20:29;;;;;;;3.50;2.10;;;;;;;12.72;64.50;96785.31;5045823;28;20049;-74
2023/02/18 11:23:14;;;;;;;3.58;2.25;;;;;;;12.84;64.48;96781.94;5046688;28;20049;-74
2023/02/18 11:25:54;;;;;;;2.40;1.48;;;;;;;13.01;64.26;96781.97;5046714;28;20041;-73
2023/02/18 11:28:41;;;;;;;2.17;1.20;;;;;;;13.16;64.06;96780.66;5046072;28;20657;-74
2023/02/18 11:31:10;;;;;;;3.75;1.85;;;;;;;13.03;64.37;96773.44;5027895;28;20132;-73
2023/02/18 11:33:41;;;;;;;3.03;1.80;;;;;;;13.13;63.92;96766.81;5011362;28;20080;-73
2023/02/18 11:36:18;;;;;;;2.25;1.48;;;;;;;12.82;63.66;96761.53;5038294;28;20056;-74
2023/02/18 11:38:48;;;;;;;3.13;1.10;;;;;;;13.01;64.85;96764.75;5046765;28;20098;-73
2023/02/18 11:41:19;;;;;;;6.70;1.60;;;;;;;13.05;63.47;96755.59;5045782;28;20076;-73
2023/02/18 11:43:49;;;;;;;4.22;1.33;;;;;;;13.07;62.58;96753.31;5046173;28;20098;-73